Terminal Aerodrome Forecast
Issued by NWS Burlington, VT

Home | Current Version | Previous Version | Text Only | Print | Product List | Glossary On
Versions: 1 2 3 4 5 6 7 8 9 10 11 12 13 14 15
167
FTUS41 KBTV 241731
TAFBTV
TAF
KBTV 241731Z 2418/2518 19016G22KT 6SM -SN BR SCT020 OVC050
      TEMPO 2418/2420 1 1/2SM -SNPL BR BKN015
     FM242100 19013KT 3SM -RAPL BR BKN015 OVC020
     FM250400 29005KT P6SM VCSH OVC020
     FM250800 35004KT P6SM VCSH OVC025
     FM251300 36005KT P6SM OVC025
     FM251600 35005KT P6SM BKN050=

USA.gov is the U.S. government's official web portal to all federal, state and local government web resources and services.